»·PEaware :: EZS250 LXGB-EGCC

EZS250 :: LXGB-EGCC

FLIGHT INFORMATION

Flight Status: Arrived
Operator:
Easy Jet Switzerland
More flights by this operator :: More flights under this callsign
Pilot: Andrew J. (13363)
Aircraft: AIRBUS A319
(A319)
More flights by this aircraft type
Origin: LXGB Gibraltar AB
Gibraltar
Destination: EGCC Manchester
United Kingdom
More flights between these airports :: More routes between these airports
Route: PIMOS UN869 BLN UN865 DELOG UN864 MONTY
File this flight plan on PilotEdge
Remarks: RMK / SIMBRIEF
Altitude:
(Current/Filed)
36,000ft
Speed:
(Current/Filed)
455kts
Departed: 21-Sep-20 03:11 PM
Arrived: 21-Sep-20 05:45 PM
Distance/Time
Traveled:
1041nm/2:34
Distance/Time
To Go:
Arrived

Flight Plot

Page will automatically refresh every two minutes.

Flight plan parsing failed; only flown route is shown


Map Options




Map Legend


Flown Route
Filed Route
Departure Airport
Arrival Airport
Navaid (VOR, NDB)
Fix

Horizontal Profiles

Position Reports

Time Latitude Longitude Heading Altitude Ground
Speed
21-Sep-20 15:09 36.363619 -5.036499 9 13022ft 422kts
21-Sep-20 15:10 36.480674 -5.004791 9 15579ft 436kts
21-Sep-20 15:11 36.600729 -4.971180 9 17802ft 449kts
21-Sep-20 15:12 36.724317 -4.936371 8 19761ft 461kts
21-Sep-20 15:13 36.851249 -4.900488 8 21508ft 473kts
21-Sep-20 15:14 36.981174 -4.863642 7 23072ft 482kts
21-Sep-20 15:15 37.113076 -4.826063 6 24826ft 481kts
21-Sep-20 15:16 37.242662 -4.789137 6 26590ft 476kts
21-Sep-20 15:17 37.371210 -4.752315 5 28134ft 472kts
21-Sep-20 15:18 37.498791 -4.715615 5 29470ft 470kts
21-Sep-20 15:19 37.625740 -4.678964 4 30718ft 468kts
21-Sep-20 15:20 37.752979 -4.642093 4 31818ft 466kts
21-Sep-20 15:21 37.879108 -4.605367 4 32807ft 464kts
21-Sep-20 15:22 38.004619 -4.568715 3 33724ft 462kts
21-Sep-20 15:23 38.129842 -4.532064 3 34489ft 461kts
21-Sep-20 15:24 38.254738 -4.495382 3 35205ft 459kts
21-Sep-20 15:25 38.379466 -4.458573 3 35827ft 458kts
21-Sep-20 15:26 38.503784 -4.421776 3 36107ft 457kts
21-Sep-20 15:27 38.627496 -4.385033 3 36108ft 457kts
21-Sep-20 15:28 38.751639 -4.348027 4 36106ft 457kts
21-Sep-20 15:29 38.876084 -4.310306 4 36110ft 458kts
21-Sep-20 15:30 39.000135 -4.273013 4 36111ft 456kts
21-Sep-20 15:31 39.124023 -4.235669 5 36118ft 455kts
21-Sep-20 15:32 39.247208 -4.198451 5 36131ft 455kts
21-Sep-20 15:33 39.370407 -4.161074 5 36136ft 455kts
21-Sep-20 15:34 39.494127 -4.123399 5 36138ft 456kts
21-Sep-20 15:35 39.617481 -4.085679 5 36137ft 454kts
21-Sep-20 15:36 39.740635 -4.047900 5 36136ft 455kts
21-Sep-20 15:37 39.863907 -4.009938 5 36137ft 455kts
21-Sep-20 15:38 39.986560 -3.972040 5 36137ft 455kts
21-Sep-20 15:39 40.109519 -3.933893 5 36137ft 455kts
21-Sep-20 15:40 40.232413 -3.895683 5 36137ft 455kts
21-Sep-20 15:41 40.355680 -3.857159 5 36137ft 455kts
21-Sep-20 15:42 40.478798 -3.818534 5 36136ft 454kts
21-Sep-20 15:43 40.601424 -3.779922 5 36136ft 455kts
21-Sep-20 15:44 40.724530 -3.741007 5 36136ft 455kts
21-Sep-20 15:45 40.847346 -3.702026 5 36136ft 455kts
21-Sep-20 15:46 40.970354 -3.662831 5 36136ft 455kts
21-Sep-20 15:47 41.091795 -3.624367 7 36138ft 445kts
21-Sep-20 15:48 41.213852 -3.606641 356 36136ft 439kts
21-Sep-20 15:50 41.335743 -3.609460 355 36138ft 438kts
21-Sep-20 15:51 41.457792 -3.612574 355 36166ft 438kts
21-Sep-20 15:52 41.579495 -3.613600 356 36185ft 439kts
21-Sep-20 15:53 41.701508 -3.613690 356 36189ft 439kts
21-Sep-20 15:54 41.823694 -3.613716 356 36190ft 438kts
21-Sep-20 15:55 41.946123 -3.613705 356 36191ft 439kts
21-Sep-20 15:56 42.068044 -3.616626 353 36189ft 437kts
21-Sep-20 15:57 42.189536 -3.624654 353 36191ft 438kts
21-Sep-20 15:58 42.310844 -3.632501 353 36192ft 438kts
21-Sep-20 15:59 42.431324 -3.649879 348 36191ft 435kts
21-Sep-20 16:00 42.551193 -3.673884 348 36191ft 435kts
21-Sep-20 16:01 42.670994 -3.697749 348 36191ft 435kts
21-Sep-20 16:02 42.791199 -3.718734 349 36190ft 436kts
21-Sep-20 16:03 42.911305 -3.739216 350 36178ft 431kts
21-Sep-20 16:04 43.030434 -3.759825 354 36144ft 437kts
21-Sep-20 16:05 43.153475 -3.780670 353 36142ft 451kts
21-Sep-20 16:06 43.278902 -3.802315 353 36138ft 454kts
21-Sep-20 16:07 43.404965 -3.824206 353 36138ft 454kts
21-Sep-20 16:07 43.509586 -3.842443 353 36138ft 454kts
21-Sep-20 16:09 43.656326 -3.868128 353 36138ft 454kts
21-Sep-20 16:09 43.760710 -3.886489 353 36138ft 455kts
21-Sep-20 16:10 43.886156 -3.908618 353 36138ft 454kts
21-Sep-20 16:11 44.011451 -3.930829 353 36138ft 455kts
21-Sep-20 16:12 44.136567 -3.953092 353 36138ft 455kts
21-Sep-20 16:13 44.261846 -3.975463 354 36138ft 455kts
21-Sep-20 16:14 44.387346 -3.978360 6 36138ft 453kts
21-Sep-20 16:15 44.512474 -3.958632 7 36138ft 453kts
21-Sep-20 16:16 44.637836 -3.938620 7 36138ft 453kts
21-Sep-20 16:17 44.763759 -3.918563 7 36138ft 453kts
21-Sep-20 16:18 44.889831 -3.898412 7 36138ft 453kts
21-Sep-20 16:19 45.015964 -3.878245 8 36139ft 452kts
21-Sep-20 16:20 45.139864 -3.860302 7 36139ft 441kts
21-Sep-20 16:21 45.263036 -3.846384 7 36138ft 441kts
21-Sep-20 16:22 45.386111 -3.832037 7 36138ft 441kts
21-Sep-20 16:23 45.509106 -3.817609 7 36138ft 441kts
21-Sep-20 16:24 45.632083 -3.801743 8 36133ft 440kts
21-Sep-20 16:25 45.754465 -3.783490 8 36110ft 440kts
21-Sep-20 16:26 45.876750 -3.765426 8 36089ft 441kts
21-Sep-20 16:27 45.998804 -3.747358 8 36084ft 441kts
21-Sep-20 16:28 46.120918 -3.729222 8 36084ft 440kts
21-Sep-20 16:29 46.242918 -3.711098 8 36084ft 440kts
21-Sep-20 16:30 46.365613 -3.697022 4 36084ft 442kts
21-Sep-20 16:31 46.488905 -3.691756 4 36084ft 442kts
21-Sep-20 16:32 46.611739 -3.686334 4 36084ft 442kts
21-Sep-20 16:33 46.734643 -3.680827 4 36084ft 442kts
21-Sep-20 16:34 46.858083 -3.675266 4 36083ft 442kts
21-Sep-20 16:35 46.980473 -3.669774 5 36085ft 438kts
21-Sep-20 16:36 47.100983 -3.664278 5 36084ft 432kts
21-Sep-20 16:37 47.221379 -3.658812 5 36084ft 433kts
21-Sep-20 16:38 47.341700 -3.653296 5 36084ft 433kts
21-Sep-20 16:39 47.461676 -3.647775 5 36084ft 432kts
21-Sep-20 16:40 47.581665 -3.642224 5 36083ft 432kts
21-Sep-20 16:41 47.701668 -3.634022 6 36084ft 432kts
21-Sep-20 16:42 47.821713 -3.625818 5 36084ft 433kts
21-Sep-20 16:43 47.942737 -3.620602 5 36084ft 432kts
21-Sep-20 16:44 48.063133 -3.615070 5 36084ft 433kts
21-Sep-20 16:45 48.183294 -3.609470 5 36083ft 432kts
21-Sep-20 16:46 48.303291 -3.603857 5 36057ft 433kts
21-Sep-20 16:47 48.424097 -3.597767 5 36021ft 433kts
21-Sep-20 16:48 48.544517 -3.591496 5 36011ft 433kts
21-Sep-20 16:49 48.665567 -3.585195 5 36010ft 433kts
21-Sep-20 16:50 48.786874 -3.578870 5 36010ft 433kts
21-Sep-20 16:51 48.907501 -3.572484 5 36010ft 433kts
21-Sep-20 16:52 49.028489 -3.566148 6 36011ft 429kts
21-Sep-20 16:53 49.147229 -3.559912 7 36011ft 421kts
21-Sep-20 16:54 49.264617 -3.553579 7 36010ft 421kts
21-Sep-20 16:55 49.381999 -3.547433 6 36010ft 421kts
21-Sep-20 16:56 49.500408 -3.541451 6 36010ft 421kts
21-Sep-20 16:57 49.618273 -3.535459 6 36015ft 421kts
21-Sep-20 16:58 49.736318 -3.529432 6 36033ft 421kts
21-Sep-20 16:59 49.853696 -3.523125 6 36051ft 421kts
21-Sep-20 17:00 49.970999 -3.516808 7 36055ft 421kts
21-Sep-20 17:01 50.087899 -3.510499 6 36056ft 421kts
21-Sep-20 17:02 50.205320 -3.504220 7 36047ft 421kts
21-Sep-20 17:03 50.322200 -3.497874 7 36032ft 421kts
21-Sep-20 17:04 50.438967 -3.486987 10 36029ft 418kts
21-Sep-20 17:05 50.554728 -3.467126 10 36029ft 418kts
21-Sep-20 17:06 50.670285 -3.447631 10 36029ft 418kts
21-Sep-20 17:07 50.786639 -3.427640 10 36030ft 426kts
21-Sep-20 17:08 50.905973 -3.406968 10 36029ft 434kts
21-Sep-20 17:09 51.026267 -3.386073 8 36028ft 439kts
21-Sep-20 17:10 51.148130 -3.364971 8 36029ft 441kts
21-Sep-20 17:11 51.270085 -3.343477 9 36029ft 440kts
21-Sep-20 17:12 51.391664 -3.321796 9 36029ft 440kts
21-Sep-20 17:13 51.513192 -3.300304 9 36029ft 440kts
21-Sep-20 17:14 51.635126 -3.278742 9 36030ft 440kts
21-Sep-20 17:15 51.756908 -3.260038 6 36030ft 442kts
21-Sep-20 17:16 51.879644 -3.251104 5 36029ft 441kts
21-Sep-20 17:17 52.002340 -3.241838 5 36029ft 442kts
21-Sep-20 17:18 52.125119 -3.232776 5 36030ft 442kts
21-Sep-20 17:19 52.223562 -3.225188 5 36029ft 441kts
21-Sep-20 17:20 52.370155 -3.213925 5 36029ft 442kts
21-Sep-20 17:21 52.492817 -3.204562 5 35606ft 442kts
21-Sep-20 17:22 52.615958 -3.195033 5 34055ft 446kts
21-Sep-20 17:23 52.739808 -3.185393 4 31043ft 447kts
21-Sep-20 17:24 52.865175 -3.175583 2 27528ft 456kts
21-Sep-20 17:25 52.992312 -3.165519 0 23044ft 468kts
21-Sep-20 17:26 53.119719 -3.155547 0 19590ft 448kts
21-Sep-20 17:27 53.238312 -3.146096 359 18181ft 396kts
21-Sep-20 17:28 53.325906 -3.059159 74 16395ft 384kts
21-Sep-20 17:29 53.332223 -2.891880 88 12998ft 348kts
21-Sep-20 17:30 53.337930 -2.737950 87 9959ft 308kts
21-Sep-20 17:31 53.343177 -2.608836 87 8633ft 266kts
21-Sep-20 17:32 53.348015 -2.487404 87 7631ft 258kts
21-Sep-20 17:33 53.352576 -2.370471 87 6627ft 243kts
21-Sep-20 17:34 53.359820 -2.256949 63 5801ft 261kts
21-Sep-20 17:35 53.405562 -2.162688 51 5323ft 260kts
21-Sep-20 17:36 53.449445 -2.074198 46 4814ft 229kts
21-Sep-20 17:37 53.503770 -2.048259 4 4310ft 200kts
21-Sep-20 17:38 53.524565 -1.993236 144 3802ft 172kts
21-Sep-20 17:39 53.481906 -2.015386 217 3335ft 172kts
21-Sep-20 17:40 53.450193 -2.076157 229 2996ft 175kts
21-Sep-20 17:41 53.421452 -2.135321 229 2142ft 150kts
21-Sep-20 17:42 53.394808 -2.190163 229 1333ft 145kts
21-Sep-20 17:43 53.370429 -2.240469 230 594ft 138kts
21-Sep-20 17:44 53.351408 -2.279732 230 259ft 39kts
21-Sep-20 17:45 53.350432 -2.286898 52 259ft 11kts
21-Sep-20 17:46 53.353117 -2.281669 41 259ft 17kts
21-Sep-20 17:47 53.356720 -2.275621 49 259ft 15kts
21-Sep-20 17:48 53.360473 -2.272271 43 259ft 11kts
21-Sep-20 17:50 53.360783 -2.271844 41 259ft 0kts
21-Sep-20 17:51 53.360784 -2.271844 41 259ft 0kts
21-Sep-20 17:52 53.360784 -2.271844 41 259ft 0kts
21-Sep-20 17:53 53.360783 -2.271844 41 259ft 0kts

Navigation Log

Ident Type
Flight plan parsing failed, navigation log unavailable